Pilot Rock, Oregon
Current Conditions -  °F | °C
As of 1:53 AM on Monday 20 Oct 2014 (Local Time) from KPDT Reporting Station
Clear Clear  
Wind Chill: 44°   Ceiling: Unl
Heat Index: 46°   Visibility: 8mi
Dew Point: 42°   Wind: 5mph
Humidity: 86%   Direction: 130°SE
Pressure: 29.71"   Gusts: NA
Location:  45.48°N, 118.83°W
Report Text: KPDT 200853Z AUTO 13004KT 8SM CLR 08/06 A2971 RMK AO2 SLP052 T00780056 58001
Loading
Personal Weather Stations






























Interactive Weather Map New forecast layout! Learn more

10-Day Weather Forecast

Advertisements
Track Severe Weather on mobile